createdAt,value
2022-08-26T00:02:19.319Z,20.30
2022-08-26T00:04:49.386Z,20.30
2022-08-26T00:07:19.100Z,20.30
2022-08-26T00:09:47.560Z,20.20
2022-08-26T00:12:15.845Z,20.20
2022-08-26T00:14:44.270Z,20.20
2022-08-26T00:17:14.460Z,20.20
2022-08-26T00:20:29.117Z,20.20
2022-08-26T00:22:58.938Z,20.20
2022-08-26T00:25:27.814Z,20.20
2022-08-26T00:27:56.075Z,20.20
2022-08-26T00:30:27.716Z,20.20
2022-08-26T00:32:56.222Z,20.20
2022-08-26T00:35:25.692Z,20.20
2022-08-26T00:37:58.177Z,20.20
2022-08-26T00:40:29.571Z,20.20
2022-08-26T00:42:58.003Z,20.20
2022-08-26T00:45:29.047Z,20.20
2022-08-26T00:48:02.315Z,20.20
2022-08-26T00:50:36.936Z,20.30
2022-08-26T00:53:24.267Z,20.20
2022-08-26T00:55:59.851Z,20.30
2022-08-26T00:58:30.885Z,20.30
2022-08-26T01:05:27.580Z,20.30
2022-08-26T01:12:40.332Z,20.20
2022-08-26T01:15:10.903Z,20.10
2022-08-26T01:17:41.336Z,20.10
2022-08-26T01:20:24.695Z,20.10
2022-08-26T01:22:58.202Z,20.00
2022-08-26T01:25:32.808Z,20.00
2022-08-26T01:28:05.832Z,20.00
2022-08-26T01:30:35.281Z,19.90
2022-08-26T01:33:08.089Z,20.00
2022-08-26T01:35:37.896Z,19.90
2022-08-26T01:38:07.803Z,19.90
2022-08-26T01:40:39.979Z,19.90
2022-08-26T01:43:10.245Z,19.90
2022-08-26T01:45:41.711Z,19.90
2022-08-26T01:48:15.002Z,19.90
2022-08-26T01:50:46.357Z,19.90
2022-08-26T01:53:19.771Z,19.90
2022-08-26T01:55:54.409Z,19.90
2022-08-26T01:58:25.573Z,19.80
2022-08-26T02:00:55.826Z,19.80
2022-08-26T02:08:01.893Z,19.80
2022-08-26T02:10:32.652Z,19.80
2022-08-26T02:13:01.921Z,19.80
2022-08-26T02:15:33.515Z,19.80
2022-08-26T02:18:05.926Z,19.80
2022-08-26T02:20:37.046Z,19.80
2022-08-26T02:23:07.995Z,19.80
2022-08-26T02:25:45.108Z,19.80
2022-08-26T02:28:14.381Z,19.80
2022-08-26T02:30:43.047Z,19.80
2022-08-26T02:33:11.406Z,19.80
2022-08-26T02:35:39.835Z,19.80
2022-08-26T02:38:11.455Z,19.80
2022-08-26T02:40:43.992Z,19.80
2022-08-26T02:43:13.392Z,19.70
2022-08-26T02:45:42.967Z,19.70
2022-08-26T02:48:14.912Z,19.70
2022-08-26T02:50:43.455Z,19.70
2022-08-26T02:53:13.331Z,19.70
2022-08-26T02:55:43.392Z,19.70
2022-08-26T02:58:12.496Z,19.70
2022-08-26T03:00:52.885Z,19.70
2022-08-26T03:03:23.729Z,19.70
2022-08-26T03:05:55.081Z,19.60
2022-08-26T03:08:23.764Z,19.60
2022-08-26T03:10:54.901Z,19.60
2022-08-26T03:13:23.140Z,19.50
2022-08-26T03:15:51.699Z,19.50
2022-08-26T03:18:19.834Z,19.50
2022-08-26T03:20:48.895Z,19.50
2022-08-26T03:23:18.505Z,19.40
2022-08-26T03:25:50.958Z,19.40
2022-08-26T03:28:21.368Z,19.40
2022-08-26T03:30:49.262Z,19.40
2022-08-26T03:33:19.083Z,19.40
2022-08-26T03:35:50.520Z,19.40
2022-08-26T03:38:19.986Z,19.40
2022-08-26T03:40:48.662Z,19.30
2022-08-26T03:43:21.490Z,19.30
2022-08-26T03:45:50.099Z,19.30
2022-08-26T03:48:21.912Z,19.30
2022-08-26T03:50:50.644Z,19.30
2022-08-26T03:53:20.571Z,19.30
2022-08-26T03:55:51.944Z,19.30
2022-08-26T03:58:24.490Z,19.30
2022-08-26T04:00:55.551Z,19.30
2022-08-26T04:04:01.807Z,19.30
2022-08-26T04:07:09.206Z,19.30
2022-08-26T04:09:38.029Z,19.30
2022-08-26T04:12:09.239Z,19.30
2022-08-26T04:14:39.978Z,19.30
2022-08-26T04:17:08.216Z,19.20
2022-08-26T04:19:36.590Z,19.20
2022-08-26T04:22:05.293Z,19.10
2022-08-26T04:24:34.712Z,19.10
2022-08-26T04:27:03.627Z,19.10
2022-08-26T04:29:33.051Z,19.10
2022-08-26T04:32:04.861Z,19.10
2022-08-26T04:34:34.527Z,19.10
2022-08-26T04:37:03.208Z,19.10
2022-08-26T04:39:31.652Z,19.10
2022-08-26T04:42:01.772Z,19.20
2022-08-26T04:44:31.888Z,19.20
2022-08-26T04:47:00.122Z,19.20
2022-08-26T04:49:35.145Z,19.30
2022-08-26T04:52:05.074Z,19.30
2022-08-26T04:54:33.732Z,19.30
2022-08-26T04:57:02.484Z,19.30
2022-08-26T04:59:30.830Z,19.40
2022-08-26T05:01:59.846Z,19.40
2022-08-26T05:04:30.337Z,19.40
2022-08-26T05:07:02.839Z,19.40
2022-08-26T05:09:32.023Z,19.40
2022-08-26T05:12:00.191Z,19.40
2022-08-26T05:14:31.290Z,19.40
2022-08-26T05:16:59.698Z,19.40
2022-08-26T05:19:29.564Z,19.40
2022-08-26T05:21:57.863Z,19.50
2022-08-26T05:24:26.564Z,19.40
2022-08-26T05:26:56.484Z,19.50
2022-08-26T05:29:25.153Z,19.50
2022-08-26T05:31:55.962Z,19.50
2022-08-26T05:34:25.738Z,19.50
2022-08-26T05:37:00.396Z,19.50
2022-08-26T05:39:28.655Z,19.60
2022-08-26T05:41:56.870Z,19.60
2022-08-26T05:44:25.661Z,19.60
2022-08-26T05:46:54.103Z,19.60
2022-08-26T05:49:26.167Z,19.60
2022-08-26T05:51:55.148Z,19.70
2022-08-26T05:54:25.086Z,19.70
2022-08-26T05:56:53.466Z,19.70
2022-08-26T05:59:24.509Z,19.70
2022-08-26T06:01:54.745Z,19.70
2022-08-26T06:04:24.885Z,19.80
2022-08-26T06:06:55.630Z,19.80
2022-08-26T06:09:26.720Z,19.80
2022-08-26T06:11:55.967Z,19.90
2022-08-26T06:14:25.964Z,19.90
2022-08-26T06:16:55.212Z,19.90
2022-08-26T06:19:23.689Z,20.00
2022-08-26T06:21:54.726Z,20.10
2022-08-26T06:24:42.200Z,20.10
2022-08-26T06:27:13.777Z,20.20
2022-08-26T06:29:43.970Z,20.20
2022-08-26T06:32:12.703Z,20.20
2022-08-26T06:34:41.088Z,20.20
2022-08-26T06:37:10.280Z,20.20
2022-08-26T06:39:41.168Z,20.30
2022-08-26T06:42:10.827Z,20.30
2022-08-26T06:44:41.084Z,20.30
2022-08-26T06:47:09.558Z,20.30
2022-08-26T06:49:38.322Z,20.30
2022-08-26T06:52:08.053Z,20.30
2022-08-26T06:54:37.110Z,20.30
2022-08-26T06:57:08.994Z,20.40
2022-08-26T06:59:38.574Z,20.40
2022-08-26T07:02:06.924Z,20.40
2022-08-26T07:04:36.854Z,20.40
2022-08-26T07:07:05.322Z,20.50
2022-08-26T07:09:35.362Z,20.40
2022-08-26T07:12:06.889Z,20.50
2022-08-26T07:14:37.140Z,20.50
2022-08-26T07:17:07.363Z,20.60
2022-08-26T07:19:38.528Z,20.60
2022-08-26T07:22:08.616Z,20.60
2022-08-26T07:24:42.566Z,20.60
2022-08-26T07:27:15.590Z,20.70
2022-08-26T07:29:45.994Z,20.70
2022-08-26T07:32:16.082Z,20.80
2022-08-26T07:34:49.691Z,20.90
2022-08-26T07:37:18.599Z,20.90
2022-08-26T07:39:48.475Z,20.90
2022-08-26T07:42:21.804Z,21.00
2022-08-26T07:44:51.725Z,21.10
2022-08-26T07:47:25.238Z,21.20
2022-08-26T07:49:55.827Z,21.40
2022-08-26T07:52:27.243Z,21.50
2022-08-26T07:54:58.352Z,21.70
2022-08-26T07:57:27.215Z,21.80
2022-08-26T07:59:57.536Z,22.00
2022-08-26T08:02:26.996Z,22.20
2022-08-26T08:04:56.825Z,22.40
2022-08-26T08:07:38.746Z,22.60
2022-08-26T08:10:16.988Z,22.70
2022-08-26T08:12:46.059Z,22.80
2022-08-26T08:15:15.970Z,22.90
2022-08-26T08:17:44.681Z,23.00
2022-08-26T08:20:15.160Z,23.00
2022-08-26T08:22:44.120Z,23.10
2022-08-26T08:25:13.996Z,23.00
2022-08-26T08:27:45.723Z,22.80
2022-08-26T08:30:20.842Z,22.60
2022-08-26T08:32:51.602Z,22.60
2022-08-26T08:35:22.669Z,22.40
2022-08-26T08:37:54.475Z,22.40
2022-08-26T08:40:25.204Z,22.40
2022-08-26T08:42:59.399Z,22.60
2022-08-26T08:45:37.073Z,22.70
2022-08-26T08:48:11.723Z,22.80
2022-08-26T08:50:45.939Z,22.70
2022-08-26T08:53:17.585Z,22.70
2022-08-26T08:56:11.472Z,22.70
2022-08-26T08:58:53.489Z,22.90
2022-08-26T09:01:39.723Z,22.90
2022-08-26T09:04:24.703Z,23.00
2022-08-26T09:09:31.392Z,23.30
2022-08-26T09:12:01.792Z,23.30
2022-08-26T09:14:31.405Z,23.30
2022-08-26T09:17:08.109Z,23.50
2022-08-26T09:19:41.303Z,23.70
2022-08-26T09:22:10.087Z,23.80
2022-08-26T09:24:48.432Z,23.70
2022-08-26T09:27:38.898Z,23.60
2022-08-26T09:30:11.545Z,23.60
2022-08-26T09:32:41.981Z,23.60
2022-08-26T09:35:24.599Z,23.70
2022-08-26T09:37:53.266Z,23.90
2022-08-26T09:40:29.181Z,23.90
2022-08-26T09:43:10.068Z,24.10
2022-08-26T09:45:40.539Z,24.10
2022-08-26T09:48:36.530Z,24.10
2022-08-26T09:51:07.040Z,24.30
2022-08-26T09:53:50.761Z,24.40
2022-08-26T09:56:27.535Z,24.50
2022-08-26T09:58:57.793Z,24.40
2022-08-26T10:01:32.189Z,24.30
2022-08-26T10:04:08.746Z,24.40
2022-08-26T10:06:41.780Z,24.70
2022-08-26T10:09:14.241Z,25.40
2022-08-26T10:11:48.960Z,26.00
2022-08-26T10:14:22.476Z,26.60
2022-08-26T10:16:57.126Z,26.60
2022-08-26T10:19:48.285Z,26.90
2022-08-26T10:22:27.060Z,27.30
2022-08-26T10:25:01.121Z,26.90
2022-08-26T10:27:49.508Z,26.30
2022-08-26T10:30:24.712Z,25.90
2022-08-26T10:32:56.648Z,25.60
2022-08-26T10:35:27.620Z,25.40
2022-08-26T10:38:00.274Z,25.50
2022-08-26T10:40:36.565Z,25.70
2022-08-26T10:43:11.475Z,26.10
2022-08-26T10:45:45.687Z,26.30
2022-08-26T10:48:18.623Z,26.20
2022-08-26T10:50:49.331Z,25.90
2022-08-26T10:53:38.430Z,25.50
2022-08-26T10:56:19.709Z,25.40
2022-08-26T10:58:59.293Z,25.20
2022-08-26T11:01:47.085Z,25.30
2022-08-26T11:04:54.636Z,25.40
2022-08-26T11:07:40.503Z,25.80
2022-08-26T11:10:28.668Z,26.40
2022-08-26T11:13:00.116Z,27.40
2022-08-26T11:16:10.637Z,27.80
2022-08-26T11:18:54.776Z,27.80
2022-08-26T11:22:05.198Z,27.90
2022-08-26T11:25:11.819Z,27.90
2022-08-26T11:28:06.710Z,27.60
2022-08-26T11:30:56.918Z,27.90
2022-08-26T11:34:00.258Z,27.60
2022-08-26T11:36:58.100Z,28.00
2022-08-26T11:39:30.307Z,28.50
2022-08-26T11:42:03.238Z,28.70
2022-08-26T11:44:40.035Z,28.60
2022-08-26T11:47:11.559Z,28.20
2022-08-26T11:49:41.820Z,27.70
2022-08-26T11:52:18.017Z,27.40
2022-08-26T11:55:02.746Z,27.40
2022-08-26T11:57:35.840Z,27.30
2022-08-26T12:00:08.424Z,26.90
2022-08-26T12:02:41.546Z,26.40
2022-08-26T12:05:10.269Z,26.20
2022-08-26T12:07:39.586Z,26.10
2022-08-26T12:10:25.755Z,26.00
2022-08-26T12:13:00.449Z,25.80
2022-08-26T12:15:30.624Z,25.90
2022-08-26T12:17:59.335Z,26.00
2022-08-26T12:20:46.152Z,26.20
2022-08-26T12:23:32.244Z,26.40
2022-08-26T12:26:07.314Z,26.10
2022-08-26T12:28:44.138Z,25.70
2022-08-26T12:31:12.767Z,25.50
2022-08-26T12:33:45.944Z,25.50
2022-08-26T12:36:14.586Z,25.50
2022-08-26T12:38:42.860Z,25.60
2022-08-26T12:41:11.094Z,25.50
2022-08-26T12:43:46.578Z,25.40
2022-08-26T12:46:19.330Z,25.40
2022-08-26T12:48:50.714Z,25.50
2022-08-26T12:51:25.888Z,25.70
2022-08-26T12:53:55.136Z,25.80
2022-08-26T12:56:31.095Z,25.80
2022-08-26T12:59:07.303Z,26.00
2022-08-26T13:01:43.656Z,26.10
2022-08-26T13:04:35.265Z,26.10
2022-08-26T13:07:21.917Z,26.10
2022-08-26T13:09:51.927Z,26.00
2022-08-26T13:12:31.959Z,25.90
2022-08-26T13:15:03.300Z,25.80
2022-08-26T13:17:31.910Z,25.60
2022-08-26T13:20:04.169Z,25.70
2022-08-26T13:22:33.154Z,25.90
2022-08-26T13:25:01.427Z,25.90
2022-08-26T13:27:29.849Z,25.80
2022-08-26T13:29:59.430Z,25.70
2022-08-26T13:32:30.371Z,25.50
2022-08-26T13:34:59.721Z,25.50
2022-08-26T13:37:34.371Z,25.20
2022-08-26T13:40:04.737Z,25.10
2022-08-26T13:42:33.072Z,25.20
2022-08-26T13:45:05.427Z,25.70
2022-08-26T13:47:35.355Z,26.10
2022-08-26T13:50:04.098Z,26.50
2022-08-26T13:52:32.421Z,26.40
2022-08-26T13:55:01.596Z,26.30
2022-08-26T13:57:30.687Z,26.00
2022-08-26T14:00:00.172Z,25.90
2022-08-26T14:02:30.832Z,26.00
2022-08-26T14:05:00.552Z,26.00
2022-08-26T14:07:28.907Z,25.90
2022-08-26T14:09:58.408Z,25.80
2022-08-26T14:12:28.794Z,25.80
2022-08-26T14:14:57.503Z,25.80
2022-08-26T14:17:26.450Z,25.80
2022-08-26T14:20:00.472Z,25.80
2022-08-26T14:22:29.588Z,25.80
2022-08-26T14:24:57.817Z,25.50
2022-08-26T14:27:26.474Z,25.50
2022-08-26T14:29:55.220Z,25.30
2022-08-26T14:32:25.994Z,25.30
2022-08-26T14:34:55.689Z,25.30
2022-08-26T14:37:25.341Z,25.40
2022-08-26T14:39:53.549Z,25.50
2022-08-26T14:42:26.609Z,25.60
2022-08-26T14:45:02.553Z,25.50
2022-08-26T14:47:30.936Z,25.40
2022-08-26T14:49:59.196Z,25.20
2022-08-26T14:52:29.700Z,25.10
2022-08-26T14:54:57.017Z,24.90
2022-08-26T14:57:25.262Z,24.70
2022-08-26T14:59:56.062Z,24.70
2022-08-26T15:02:32.676Z,24.80
2022-08-26T15:05:02.156Z,24.80
2022-08-26T15:07:32.223Z,24.70
2022-08-26T15:10:01.360Z,24.70
2022-08-26T15:12:29.583Z,24.70
2022-08-26T15:14:58.283Z,24.80
2022-08-26T15:17:26.540Z,24.90
2022-08-26T15:19:54.805Z,25.00
2022-08-26T15:22:23.314Z,25.20
2022-08-26T15:24:53.770Z,25.10
2022-08-26T15:27:22.570Z,24.90
2022-08-26T15:29:51.878Z,24.90
2022-08-26T15:32:20.808Z,24.80
2022-08-26T15:34:49.997Z,24.70
2022-08-26T15:37:19.107Z,24.70
2022-08-26T15:39:47.503Z,24.90
2022-08-26T15:42:17.030Z,24.80
2022-08-26T15:44:46.854Z,24.70
2022-08-26T15:47:16.604Z,25.00
2022-08-26T15:49:45.073Z,25.00
2022-08-26T15:52:13.455Z,25.30
2022-08-26T15:54:41.739Z,25.70
2022-08-26T15:57:12.323Z,26.00
2022-08-26T15:59:43.372Z,26.10
2022-08-26T16:02:11.754Z,25.60
2022-08-26T16:04:40.272Z,25.20
2022-08-26T16:07:10.802Z,24.90
2022-08-26T16:09:39.309Z,24.70
2022-08-26T16:12:07.731Z,24.40
2022-08-26T16:14:36.813Z,24.30
2022-08-26T16:17:06.462Z,24.20
2022-08-26T16:19:34.691Z,24.40
2022-08-26T16:22:02.997Z,24.50
2022-08-26T16:24:33.499Z,24.40
2022-08-26T16:27:02.006Z,24.50
2022-08-26T16:29:31.900Z,24.60
2022-08-26T16:32:00.395Z,24.60
2022-08-26T16:34:30.191Z,24.90
2022-08-26T16:36:59.443Z,25.20
2022-08-26T16:39:27.885Z,25.40
2022-08-26T16:41:56.266Z,25.60
2022-08-26T16:44:24.787Z,25.80
2022-08-26T16:46:58.979Z,25.80
2022-08-26T16:49:27.531Z,25.90
2022-08-26T16:51:57.595Z,25.90
2022-08-26T16:54:25.977Z,25.80
2022-08-26T16:56:54.290Z,25.80
2022-08-26T16:59:22.665Z,25.80
2022-08-26T17:01:51.006Z,25.90
2022-08-26T17:04:19.995Z,26.00
2022-08-26T17:06:48.235Z,25.80
2022-08-26T17:09:17.904Z,25.80
2022-08-26T17:11:46.436Z,25.70
2022-08-26T17:14:15.341Z,25.60
2022-08-26T17:16:44.006Z,25.50
2022-08-26T17:19:12.713Z,25.40
2022-08-26T17:21:41.239Z,25.20
2022-08-26T17:24:09.478Z,25.20
2022-08-26T17:26:39.255Z,25.00
2022-08-26T17:29:08.006Z,24.80
2022-08-26T17:31:38.244Z,24.70
2022-08-26T17:34:07.474Z,24.90
2022-08-26T17:36:35.898Z,24.80
2022-08-26T17:39:05.545Z,24.60
2022-08-26T17:41:33.901Z,24.60
2022-08-26T17:44:03.788Z,24.50
2022-08-26T17:46:34.181Z,24.50
2022-08-26T17:49:05.051Z,24.50
2022-08-26T17:51:33.414Z,24.40
2022-08-26T17:54:01.753Z,24.10
2022-08-26T17:56:31.155Z,23.90
2022-08-26T17:59:02.862Z,23.80
2022-08-26T18:01:34.493Z,23.70
2022-08-26T18:04:02.884Z,23.50
2022-08-26T18:06:32.857Z,23.30
2022-08-26T18:09:01.809Z,23.10
2022-08-26T18:11:33.874Z,22.80
2022-08-26T18:14:02.335Z,22.60
2022-08-26T18:16:31.618Z,22.50
2022-08-26T18:19:02.738Z,22.20
2022-08-26T18:21:31.111Z,22.10
2022-08-26T18:23:59.576Z,22.00
2022-08-26T18:26:29.961Z,21.80
2022-08-26T18:28:59.405Z,21.70
2022-08-26T18:31:27.924Z,21.60
2022-08-26T18:33:56.754Z,21.50
2022-08-26T18:36:30.011Z,21.40
2022-08-26T18:38:59.014Z,21.30
2022-08-26T18:41:30.463Z,21.20
2022-08-26T18:43:59.467Z,21.10
2022-08-26T18:46:29.236Z,21.00
2022-08-26T18:48:58.445Z,20.80
2022-08-26T18:51:30.711Z,20.80
2022-08-26T18:54:01.068Z,20.70
2022-08-26T18:56:30.394Z,20.60
2022-08-26T18:58:59.860Z,20.50
2022-08-26T19:01:30.112Z,20.40
2022-08-26T19:04:01.334Z,20.30
2022-08-26T19:06:33.345Z,20.30
2022-08-26T19:09:02.675Z,20.20
2022-08-26T19:11:37.393Z,20.10
2022-08-26T19:14:14.238Z,20.00
2022-08-26T19:16:44.302Z,19.90
2022-08-26T19:19:13.147Z,19.80
2022-08-26T19:21:43.550Z,19.80
2022-08-26T19:24:15.663Z,19.70
2022-08-26T19:26:44.571Z,19.70
2022-08-26T19:29:13.854Z,19.70
2022-08-26T19:31:43.936Z,19.60
2022-08-26T19:34:12.710Z,19.50
2022-08-26T19:36:44.797Z,19.50
2022-08-26T19:39:15.576Z,19.40
2022-08-26T19:41:44.044Z,19.40
2022-08-26T19:44:37.993Z,19.30
2022-08-26T19:47:08.233Z,19.30
2022-08-26T19:49:36.841Z,19.30
2022-08-26T19:52:11.159Z,19.30
2022-08-26T19:54:42.469Z,19.20
2022-08-26T19:57:11.535Z,19.20
2022-08-26T19:59:40.256Z,19.20
2022-08-26T20:02:11.022Z,19.20
2022-08-26T20:04:41.775Z,19.20
2022-08-26T20:07:14.240Z,19.20
2022-08-26T20:09:47.588Z,19.20
2022-08-26T20:12:17.421Z,19.20
2022-08-26T20:14:45.907Z,19.20
2022-08-26T20:17:17.368Z,19.10
2022-08-26T20:19:59.650Z,19.10
2022-08-26T20:22:29.600Z,19.10
2022-08-26T20:24:58.139Z,19.00
2022-08-26T20:27:38.017Z,19.00
2022-08-26T20:30:09.521Z,19.00
2022-08-26T20:32:38.134Z,18.90
2022-08-26T20:35:08.316Z,18.90
2022-08-26T20:37:38.981Z,19.00
2022-08-26T20:40:09.401Z,18.90
2022-08-26T20:42:38.109Z,18.90
2022-08-26T20:45:08.108Z,18.90
2022-08-26T20:47:36.762Z,18.80
2022-08-26T20:50:05.919Z,18.80
2022-08-26T20:52:34.396Z,18.70
2022-08-26T20:55:04.393Z,18.60
2022-08-26T20:57:32.688Z,18.60
2022-08-26T21:00:01.193Z,18.50
2022-08-26T21:02:32.651Z,18.50
2022-08-26T21:05:01.679Z,18.40
2022-08-26T21:07:30.192Z,18.30
2022-08-26T21:09:59.291Z,18.20
2022-08-26T21:12:29.123Z,18.20
2022-08-26T21:14:57.367Z,18.10
2022-08-26T21:17:25.819Z,18.00
2022-08-26T21:19:54.282Z,17.90
2022-08-26T21:22:23.163Z,17.90
2022-08-26T21:24:51.644Z,17.80
2022-08-26T21:27:26.228Z,17.80
2022-08-26T21:29:56.911Z,17.70
2022-08-26T21:32:25.197Z,17.70
2022-08-26T21:34:56.024Z,17.60
2022-08-26T21:37:25.088Z,17.60
2022-08-26T21:39:55.233Z,17.60
2022-08-26T21:42:25.584Z,17.60
2022-08-26T21:44:55.814Z,17.50
2022-08-26T21:47:24.467Z,17.40
2022-08-26T21:49:53.789Z,17.40
2022-08-26T21:52:22.746Z,17.30
2022-08-26T21:54:51.502Z,17.30
2022-08-26T21:57:20.779Z,17.30
2022-08-26T21:59:49.141Z,17.20
2022-08-26T22:02:19.081Z,17.20
2022-08-26T22:04:48.971Z,17.10
2022-08-26T22:07:19.204Z,17.10
2022-08-26T22:09:47.751Z,17.00
2022-08-26T22:12:19.454Z,17.00
2022-08-26T22:14:48.208Z,17.00
2022-08-26T22:17:17.020Z,17.00
2022-08-26T22:19:46.887Z,16.90
2022-08-26T22:22:16.068Z,16.90
2022-08-26T22:24:44.489Z,16.80
2022-08-26T22:27:14.889Z,16.80
2022-08-26T22:29:43.086Z,16.80
2022-08-26T22:32:11.449Z,16.80
2022-08-26T22:34:40.824Z,16.70
2022-08-26T22:37:10.486Z,16.70
2022-08-26T22:39:39.027Z,16.70
2022-08-26T22:42:07.752Z,16.70
2022-08-26T22:44:37.033Z,16.70
2022-08-26T22:47:05.344Z,16.60
2022-08-26T22:49:33.857Z,16.60
2022-08-26T22:52:02.083Z,16.60
2022-08-26T22:54:31.695Z,16.50
2022-08-26T22:57:00.306Z,16.50
2022-08-26T22:59:28.705Z,16.50
2022-08-26T23:01:57.309Z,16.50
2022-08-26T23:04:25.977Z,16.40
2022-08-26T23:06:54.219Z,16.40
2022-08-26T23:09:22.505Z,16.30
2022-08-26T23:11:52.510Z,16.30
2022-08-26T23:14:20.983Z,16.20
2022-08-26T23:16:49.324Z,16.10
2022-08-26T23:19:21.010Z,16.10
2022-08-26T23:21:49.598Z,16.10
2022-08-26T23:24:18.433Z,16.00
2022-08-26T23:26:47.268Z,16.00
2022-08-26T23:29:16.857Z,15.90
2022-08-26T23:31:45.736Z,15.90
2022-08-26T23:34:31.729Z,15.90
2022-08-26T23:37:00.237Z,15.90
2022-08-26T23:39:29.556Z,15.80
2022-08-26T23:41:58.270Z,15.80
2022-08-26T23:44:28.304Z,15.80
2022-08-26T23:46:56.521Z,15.80
2022-08-26T23:49:25.952Z,15.80
2022-08-26T23:52:11.583Z,15.70
2022-08-26T23:54:41.158Z,15.70
2022-08-26T23:57:10.650Z,15.70
2022-08-26T23:59:40.473Z,15.60
